createdAt,value
2017-09-23T00:01:18.861Z,17.50
2017-09-23T00:03:46.729Z,14.25
2017-09-23T00:06:14.597Z,13.85
2017-09-23T00:08:42.464Z,13.50
2017-09-23T00:11:10.267Z,16.08
2017-09-23T00:13:38.914Z,15.52
2017-09-23T00:16:06.886Z,18.05
2017-09-23T00:18:34.752Z,22.67
2017-09-23T00:21:02.619Z,16.20
2017-09-23T00:23:30.486Z,15.80
2017-09-23T00:25:58.354Z,16.42
2017-09-23T00:28:26.222Z,12.60
2017-09-23T00:30:54.092Z,16.52
2017-09-23T00:33:21.955Z,18.85
2017-09-23T00:35:49.823Z,13.18
2017-09-23T00:38:17.793Z,14.30
2017-09-23T00:40:45.660Z,14.87
2017-09-23T00:43:13.532Z,18.42
2017-09-23T00:45:41.395Z,15.02
2017-09-23T00:48:09.266Z,12.50
2017-09-23T00:50:37.129Z,10.45
2017-09-23T00:53:04.997Z,11.02
2017-09-23T00:55:32.863Z,17.70
2017-09-23T00:58:00.738Z,10.60
2017-09-23T01:00:28.598Z,12.32
2017-09-23T01:02:56.467Z,12.93
2017-09-23T01:05:24.337Z,15.00
2017-09-23T01:07:52.409Z,13.05
2017-09-23T01:10:20.276Z,12.00
2017-09-23T01:12:48.140Z,14.85
2017-09-23T01:15:16.012Z,14.00
2017-09-23T01:17:43.879Z,12.30
2017-09-23T01:20:11.745Z,16.12
2017-09-23T01:22:39.711Z,11.02
2017-09-23T01:25:07.579Z,15.60
2017-09-23T01:27:35.447Z,12.93
2017-09-23T01:30:03.313Z,14.75
2017-09-23T01:32:31.181Z,14.48
2017-09-23T01:34:59.048Z,12.73
2017-09-23T01:37:26.915Z,15.07
2017-09-23T01:39:54.783Z,16.48
2017-09-23T01:42:22.548Z,17.52
2017-09-23T01:44:50.415Z,18.50
2017-09-23T01:47:18.282Z,16.05
2017-09-23T01:49:46.150Z,16.17
2017-09-23T01:52:14.016Z,22.95
2017-09-23T01:54:41.883Z,22.00
2017-09-23T01:57:09.683Z,16.02
2017-09-23T01:59:38.335Z,14.82
2017-09-23T02:02:06.203Z,13.10
2017-09-23T02:04:34.070Z,16.20
2017-09-23T02:07:01.942Z,20.08
2017-09-23T02:09:29.807Z,16.15
2017-09-23T02:11:57.675Z,19.95
2017-09-23T02:14:25.539Z,14.05
2017-09-23T02:16:53.406Z,16.08
2017-09-23T02:19:21.273Z,17.12
2017-09-23T02:21:49.140Z,16.23
2017-09-23T02:24:17.008Z,16.50
2017-09-23T02:26:44.876Z,14.00
2017-09-23T02:29:12.748Z,14.82
2017-09-23T02:31:40.618Z,12.88
2017-09-23T02:34:08.477Z,14.60
2017-09-23T02:36:36.344Z,13.55
2017-09-23T02:39:04.315Z,11.55
2017-09-23T02:41:32.182Z,11.60
2017-09-23T02:44:00.050Z,15.27
2017-09-23T02:46:27.917Z,16.52
2017-09-23T02:48:55.784Z,15.23
2017-09-23T02:51:23.650Z,15.02
2017-09-23T02:53:51.519Z,15.48
2017-09-23T02:56:19.429Z,13.95
2017-09-23T02:58:48.071Z,12.82
2017-09-23T03:01:15.939Z,11.68
2017-09-23T03:03:43.806Z,14.35
2017-09-23T03:06:11.674Z,12.57
2017-09-23T03:08:39.544Z,11.68
2017-09-23T03:11:07.408Z,15.00
2017-09-23T03:13:35.275Z,10.68
2017-09-23T03:16:03.143Z,11.75
2017-09-23T03:18:31.009Z,10.57
2017-09-23T03:20:58.878Z,10.70
2017-09-23T03:23:26.746Z,17.95
2017-09-23T03:25:54.612Z,12.98
2017-09-23T03:28:22.479Z,16.77
2017-09-23T03:33:25.012Z,14.82
2017-09-23T03:35:53.508Z,13.10
2017-09-23T03:38:21.235Z,12.27
2017-09-23T03:40:48.967Z,13.02
2017-09-23T03:43:16.718Z,14.85
2017-09-23T03:45:44.438Z,13.25
2017-09-23T03:48:12.154Z,18.17
2017-09-23T03:50:40.047Z,12.75
2017-09-23T03:53:07.911Z,15.38
2017-09-23T03:55:35.778Z,12.02
2017-09-23T03:58:03.543Z,15.05
2017-09-23T04:00:31.411Z,13.65
2017-09-23T04:02:59.278Z,12.98
2017-09-23T04:05:27.145Z,17.25
2017-09-23T04:07:55.014Z,12.80
2017-09-23T04:10:22.879Z,14.23
2017-09-23T04:12:50.750Z,12.60
2017-09-23T04:15:18.617Z,16.80
2017-09-23T04:17:46.483Z,15.10
2017-09-23T04:20:14.355Z,16.15
2017-09-23T04:22:42.221Z,12.37
2017-09-23T04:25:10.042Z,12.52
2017-09-23T04:27:37.852Z,16.37
2017-09-23T04:30:05.765Z,13.20
2017-09-23T04:32:34.403Z,12.40
2017-09-23T04:35:16.401Z,13.75
2017-09-23T04:37:44.268Z,14.75
2017-09-23T04:40:12.136Z,14.93
2017-09-23T04:42:40.030Z,15.60
2017-09-23T04:45:08.690Z,14.18
2017-09-23T04:47:36.557Z,14.90
2017-09-23T04:50:04.425Z,12.95
2017-09-23T04:52:32.290Z,14.30
2017-09-23T04:55:00.159Z,13.80
2017-09-23T04:57:28.063Z,12.70
2017-09-23T04:59:56.713Z,12.37
2017-09-23T05:02:24.580Z,13.23
2017-09-23T05:04:52.448Z,17.70
2017-09-23T05:07:20.314Z,15.20
2017-09-23T05:09:51.825Z,12.37
2017-09-23T05:12:22.029Z,11.45
2017-09-23T05:14:55.990Z,11.35
2017-09-23T05:17:28.282Z,11.93
2017-09-23T05:19:59.960Z,9.13
2017-09-23T05:22:32.822Z,8.00
2017-09-23T05:25:05.072Z,10.65
2017-09-23T05:27:37.281Z,7.75
2017-09-23T05:30:09.484Z,11.93
2017-09-23T05:32:40.559Z,10.95
2017-09-23T05:35:12.211Z,11.45
2017-09-23T05:37:43.329Z,11.30
2017-09-23T05:40:11.744Z,9.90
2017-09-23T05:42:41.880Z,14.75
2017-09-23T05:45:13.474Z,12.05
2017-09-23T05:47:44.566Z,16.87
2017-09-23T05:50:16.745Z,11.05
2017-09-23T05:52:47.551Z,19.65
2017-09-23T05:55:15.535Z,18.17
2017-09-23T05:57:43.404Z,13.60
2017-09-23T06:00:11.270Z,16.83
2017-09-23T06:02:39.138Z,17.95
2017-09-23T06:05:07.005Z,10.85
2017-09-23T06:07:34.872Z,15.20
2017-09-23T06:10:02.739Z,14.55
2017-09-23T06:12:30.606Z,12.60
2017-09-23T06:14:58.473Z,19.80
2017-09-23T06:17:26.443Z,11.93
2017-09-23T06:19:54.310Z,11.85
2017-09-23T06:22:22.178Z,16.25
2017-09-23T06:24:50.045Z,13.10
2017-09-23T06:27:17.915Z,23.17
2017-09-23T06:29:45.779Z,13.75
2017-09-23T06:32:13.648Z,14.45
2017-09-23T06:34:41.514Z,13.45
2017-09-23T06:37:09.382Z,13.07
2017-09-23T06:39:37.249Z,16.20
2017-09-23T06:42:05.117Z,15.02
2017-09-23T06:44:32.984Z,14.00
2017-09-23T06:47:00.851Z,22.58
2017-09-23T06:49:28.718Z,29.67
2017-09-23T06:51:56.588Z,15.10
2017-09-23T06:54:24.454Z,13.98
2017-09-23T06:56:52.321Z,14.65
2017-09-23T06:59:20.188Z,12.10
2017-09-23T07:01:48.158Z,9.88
2017-09-23T07:04:16.025Z,19.50
2017-09-23T07:06:43.892Z,13.75
2017-09-23T07:09:11.760Z,11.85
2017-09-23T07:11:39.626Z,12.68
2017-09-23T07:14:07.494Z,17.15
2017-09-23T07:16:35.364Z,12.93
2017-09-23T07:19:03.231Z,12.10
2017-09-23T07:21:31.097Z,11.35
2017-09-23T07:24:00.298Z,13.25
2017-09-23T07:26:28.504Z,16.40
2017-09-23T07:28:57.157Z,11.73
2017-09-23T07:31:25.025Z,15.70
2017-09-23T07:33:52.993Z,18.17
2017-09-23T07:36:20.860Z,13.80
2017-09-23T07:38:48.726Z,19.30
2017-09-23T07:41:16.594Z,30.30
2017-09-23T07:43:44.465Z,17.98
2017-09-23T07:46:12.329Z,21.08
2017-09-23T07:48:40.198Z,22.20
2017-09-23T07:51:08.064Z,23.33
2017-09-23T07:53:35.931Z,22.45
2017-09-23T07:56:03.798Z,27.02
2017-09-23T07:58:31.666Z,27.75
2017-09-23T08:00:59.430Z,22.90
2017-09-23T08:03:27.401Z,24.37
2017-09-23T08:05:55.271Z,23.80
2017-09-23T08:08:23.236Z,23.98
2017-09-23T08:10:51.104Z,26.17
2017-09-23T08:13:18.974Z,26.50
2017-09-23T08:15:46.838Z,29.83
2017-09-23T08:18:14.706Z,25.73
2017-09-23T08:20:42.573Z,25.05
2017-09-23T08:23:10.441Z,24.35
2017-09-23T08:25:38.414Z,29.98
2017-09-23T08:28:06.588Z,27.87
2017-09-23T08:30:34.451Z,24.77
2017-09-23T08:33:02.320Z,24.80
2017-09-23T08:35:30.187Z,25.17
2017-09-23T08:37:58.053Z,26.35
2017-09-23T08:40:25.922Z,29.70
2017-09-23T08:42:53.787Z,26.98
2017-09-23T08:45:21.654Z,29.50
2017-09-23T08:47:49.521Z,30.27
2017-09-23T08:50:17.389Z,31.10
2017-09-23T08:52:45.257Z,33.20
2017-09-23T08:55:13.124Z,32.47
2017-09-23T08:57:40.990Z,25.58
2017-09-23T09:00:08.857Z,31.23
2017-09-23T09:02:36.724Z,31.58
2017-09-23T09:05:04.591Z,28.20
2017-09-23T09:07:32.459Z,30.37
2017-09-23T09:10:00.326Z,24.40
2017-09-23T09:12:28.199Z,25.88
2017-09-23T09:14:56.060Z,27.25
2017-09-23T09:17:23.933Z,29.17
2017-09-23T09:19:51.797Z,24.85
2017-09-23T09:22:19.667Z,27.15
2017-09-23T09:24:47.529Z,30.77
2017-09-23T09:27:15.396Z,30.75
2017-09-23T09:29:43.263Z,24.87
2017-09-23T09:32:11.137Z,25.77
2017-09-23T09:34:39.000Z,26.73
2017-09-23T09:37:06.864Z,25.67
2017-09-23T09:39:34.732Z,24.52
2017-09-23T09:42:02.599Z,26.50
2017-09-23T09:44:30.466Z,23.08
2017-09-23T09:46:58.333Z,24.17
2017-09-23T09:49:26.202Z,24.58
2017-09-23T09:51:54.069Z,25.30
2017-09-23T09:54:21.938Z,23.87
2017-09-23T09:56:49.802Z,24.83
2017-09-23T09:59:17.598Z,29.27
2017-09-23T10:01:46.253Z,27.67
2017-09-23T10:04:14.120Z,26.45
2017-09-23T10:06:42.090Z,22.33
2017-09-23T10:09:09.958Z,24.50
2017-09-23T10:11:37.824Z,27.40
2017-09-23T10:14:05.693Z,23.15
2017-09-23T10:16:33.558Z,26.00
2017-09-23T10:19:01.426Z,24.83
2017-09-23T10:21:29.397Z,27.40
2017-09-23T10:23:57.263Z,25.77
2017-09-23T10:26:25.142Z,26.92
2017-09-23T10:28:53.000Z,29.02
2017-09-23T10:31:20.869Z,26.02
2017-09-23T10:33:48.735Z,22.77
2017-09-23T10:36:16.601Z,24.25
2017-09-23T10:38:44.569Z,27.50
2017-09-23T10:41:12.440Z,23.65
2017-09-23T10:43:40.308Z,24.52
2017-09-23T10:46:08.176Z,26.35
2017-09-23T10:48:36.040Z,30.45
2017-09-23T10:51:03.907Z,24.60
2017-09-23T10:53:31.772Z,27.00
2017-09-23T10:55:59.640Z,25.85
2017-09-23T10:58:27.507Z,27.48
2017-09-23T11:00:55.375Z,24.90
2017-09-23T11:03:23.242Z,22.98
2017-09-23T11:05:51.109Z,29.63
2017-09-23T11:08:18.976Z,26.98
2017-09-23T11:10:46.844Z,25.67
2017-09-23T11:13:14.813Z,22.37
2017-09-23T11:15:42.783Z,22.10
2017-09-23T11:18:10.651Z,23.62
2017-09-23T11:20:38.518Z,22.90
2017-09-23T11:23:06.385Z,22.05
2017-09-23T11:25:34.251Z,25.67
2017-09-23T11:28:02.221Z,22.13
2017-09-23T11:30:30.089Z,21.62
2017-09-23T11:32:57.955Z,23.90
2017-09-23T11:35:25.823Z,21.55
2017-09-23T11:37:53.690Z,22.05
2017-09-23T11:40:21.558Z,22.65
2017-09-23T11:42:49.425Z,19.75
2017-09-23T11:45:17.292Z,24.20
2017-09-23T11:47:45.161Z,20.75
2017-09-23T11:50:13.028Z,21.12
2017-09-23T11:52:40.894Z,19.40
2017-09-23T11:55:08.762Z,20.00
2017-09-23T11:57:36.628Z,17.50
2017-09-23T12:00:04.497Z,16.05
2017-09-23T12:02:32.363Z,16.52
2017-09-23T12:05:00.231Z,16.50
2017-09-23T12:07:28.235Z,16.30
2017-09-23T12:09:56.887Z,14.60
2017-09-23T12:12:24.685Z,15.75
2017-09-23T12:14:53.339Z,18.55
2017-09-23T12:17:21.208Z,16.80
2017-09-23T12:19:49.073Z,16.95
2017-09-23T12:22:16.939Z,22.23
2017-09-23T12:24:44.807Z,21.10
2017-09-23T12:27:13.463Z,15.07
2017-09-23T12:29:41.182Z,21.48
2017-09-23T12:32:09.023Z,16.08
2017-09-23T12:34:36.891Z,17.98
2017-09-23T12:37:04.757Z,18.17
2017-09-23T12:39:32.830Z,17.90
2017-09-23T12:42:00.697Z,17.25
2017-09-23T12:44:28.565Z,19.15
2017-09-23T12:46:56.432Z,14.10
2017-09-23T12:49:24.299Z,18.42
2017-09-23T12:51:52.268Z,17.37
2017-09-23T12:54:20.136Z,20.48
2017-09-23T12:56:48.003Z,24.48
2017-09-23T12:59:15.871Z,25.70
2017-09-23T13:01:43.636Z,18.00
2017-09-23T13:04:11.501Z,20.45
2017-09-23T13:06:39.369Z,18.05
2017-09-23T13:09:07.237Z,22.05
2017-09-23T13:11:35.206Z,18.30
2017-09-23T13:14:03.080Z,20.73
2017-09-23T13:16:30.941Z,26.37
2017-09-23T13:18:58.809Z,32.13
2017-09-23T13:21:26.779Z,26.30
2017-09-23T13:23:54.646Z,23.73
2017-09-23T13:26:22.761Z,21.30
2017-09-23T13:28:51.404Z,23.95
2017-09-23T13:31:19.271Z,17.85
2017-09-23T13:33:47.139Z,16.90
2017-09-23T13:36:15.006Z,20.85
2017-09-23T13:38:43.078Z,18.20
2017-09-23T13:41:10.945Z,18.35
2017-09-23T13:43:38.819Z,15.55
2017-09-23T13:46:06.684Z,23.58
2017-09-23T13:48:34.551Z,19.42
2017-09-23T13:51:02.420Z,17.50
2017-09-23T13:53:30.286Z,19.05
2017-09-23T13:55:58.154Z,17.30
2017-09-23T13:58:26.019Z,22.00
2017-09-23T14:00:53.884Z,19.62
2017-09-23T14:03:21.753Z,17.70
2017-09-23T14:05:49.618Z,17.42
2017-09-23T14:08:17.485Z,16.55
2017-09-23T14:10:45.352Z,16.08
2017-09-23T14:13:13.221Z,15.27
2017-09-23T14:15:41.087Z,16.80
2017-09-23T14:18:08.955Z,17.08
2017-09-23T14:20:36.822Z,23.73
2017-09-23T14:23:04.690Z,18.17
2017-09-23T14:25:32.557Z,16.48
2017-09-23T14:28:00.424Z,15.57
2017-09-23T14:30:28.290Z,18.42
2017-09-23T14:32:56.160Z,15.13
2017-09-23T14:35:24.025Z,19.60
2017-09-23T14:37:51.892Z,16.95
2017-09-23T14:40:19.792Z,13.40
2017-09-23T14:42:48.447Z,14.45
2017-09-23T14:45:16.348Z,16.17
2017-09-23T14:47:45.001Z,15.80
2017-09-23T14:50:12.868Z,16.67
2017-09-23T14:52:40.736Z,14.55
2017-09-23T14:55:08.602Z,14.00
2017-09-23T14:57:36.470Z,18.98
2017-09-23T15:00:04.337Z,14.52
2017-09-23T15:02:32.204Z,12.95
2017-09-23T15:05:00.071Z,13.55
2017-09-23T15:07:27.943Z,16.17
2017-09-23T15:09:55.805Z,11.55
2017-09-23T15:12:23.675Z,17.40
2017-09-23T15:14:51.540Z,15.05
2017-09-23T15:17:19.408Z,14.10
2017-09-23T15:19:50.671Z,15.60
2017-09-23T15:22:21.971Z,14.30
2017-09-23T15:24:54.314Z,15.40
2017-09-23T15:27:26.156Z,16.67
2017-09-23T15:29:59.520Z,16.65
2017-09-23T15:32:31.656Z,16.85
2017-09-23T15:35:02.414Z,18.17
2017-09-23T15:37:34.380Z,14.52
2017-09-23T15:40:05.209Z,20.05
2017-09-23T15:42:37.241Z,15.43
2017-09-23T15:45:08.154Z,17.95
2017-09-23T15:47:38.556Z,14.75
2017-09-23T15:50:09.194Z,16.55
2017-09-23T15:52:39.691Z,13.77
2017-09-23T15:55:12.953Z,13.52
2017-09-23T15:57:46.310Z,12.02
2017-09-23T16:00:18.823Z,13.02
2017-09-23T16:02:51.284Z,15.88
2017-09-23T16:05:23.381Z,13.15
2017-09-23T16:07:55.047Z,15.35
2017-09-23T16:10:26.781Z,11.05
2017-09-23T16:12:58.259Z,18.23
2017-09-23T16:15:26.065Z,10.82
2017-09-23T16:17:53.933Z,10.75
2017-09-23T16:20:21.799Z,12.25
2017-09-23T16:22:49.667Z,12.70
2017-09-23T16:25:17.534Z,12.48
2017-09-23T16:27:45.402Z,11.10
2017-09-23T16:30:14.192Z,11.18
2017-09-23T16:32:42.057Z,13.05
2017-09-23T16:35:09.927Z,12.18
2017-09-23T16:37:37.793Z,15.05
2017-09-23T16:40:05.660Z,11.70
2017-09-23T16:42:33.527Z,11.90
2017-09-23T16:45:01.395Z,11.18
2017-09-23T16:47:29.261Z,12.25
2017-09-23T16:49:57.129Z,16.27
2017-09-23T16:52:24.996Z,12.10
2017-09-23T16:54:52.863Z,14.13
2017-09-23T16:57:20.741Z,10.80
2017-09-23T16:59:48.602Z,13.32
2017-09-23T17:02:16.471Z,12.32
2017-09-23T17:04:44.356Z,14.23
2017-09-23T17:07:12.307Z,14.43
2017-09-23T17:09:40.177Z,17.35
2017-09-23T17:12:08.039Z,13.27
2017-09-23T17:14:35.907Z,11.38
2017-09-23T17:17:06.495Z,12.63
2017-09-23T17:19:37.150Z,16.67
2017-09-23T17:22:07.821Z,16.33
2017-09-23T17:24:36.960Z,16.42
2017-09-23T17:27:06.432Z,18.87
2017-09-23T17:29:36.887Z,15.38
2017-09-23T17:32:07.541Z,17.02
2017-09-23T17:34:37.003Z,14.20
2017-09-23T17:37:07.435Z,12.75
2017-09-23T17:39:36.081Z,14.38
2017-09-23T17:42:04.050Z,12.68
2017-09-23T17:44:31.918Z,13.90
2017-09-23T17:46:59.785Z,16.30
2017-09-23T17:49:27.653Z,18.62
2017-09-23T17:51:55.521Z,15.02
2017-09-23T17:54:23.387Z,16.20
2017-09-23T17:56:51.256Z,19.40
2017-09-23T17:59:19.122Z,17.25
2017-09-23T18:01:47.101Z,19.05
2017-09-23T18:04:14.960Z,18.48
2017-09-23T18:06:42.827Z,14.05
2017-09-23T18:09:12.300Z,15.13
2017-09-23T18:11:40.023Z,15.75
2017-09-23T18:14:07.758Z,20.02
2017-09-23T18:16:36.351Z,21.05
2017-09-23T18:19:04.087Z,20.67
2017-09-23T18:21:31.808Z,26.25
2017-09-23T18:24:00.307Z,23.02
2017-09-23T18:26:28.026Z,20.17
2017-09-23T18:28:55.749Z,16.33
2017-09-23T18:31:23.482Z,15.75
2017-09-23T18:33:51.970Z,14.25
2017-09-23T18:36:20.499Z,16.73
2017-09-23T18:38:48.230Z,22.87
2017-09-23T18:41:15.970Z,16.73
2017-09-23T18:43:44.470Z,16.15
2017-09-23T18:46:12.428Z,14.75
2017-09-23T18:48:40.919Z,17.92
2017-09-23T18:51:09.415Z,20.37
2017-09-23T18:53:37.342Z,18.20
2017-09-23T18:56:05.078Z,16.35
2017-09-23T18:58:32.802Z,18.15
2017-09-23T19:01:00.527Z,18.33
2017-09-23T19:03:33.759Z,17.30
2017-09-23T19:06:01.483Z,22.52
2017-09-23T19:08:29.281Z,20.42
2017-09-23T19:10:58.386Z,22.67
2017-09-23T19:13:26.326Z,26.42
2017-09-23T19:15:54.063Z,29.12
2017-09-23T19:18:21.813Z,27.70
2017-09-23T19:20:49.546Z,26.10
2017-09-23T19:23:17.406Z,26.08
2017-09-23T19:25:45.904Z,30.98
2017-09-23T19:28:29.175Z,28.12
2017-09-23T19:31:02.174Z,29.73
2017-09-23T19:33:34.927Z,25.52
2017-09-23T19:36:06.227Z,41.72
2017-09-23T19:38:40.753Z,29.85
2017-09-23T19:41:08.854Z,29.42
2017-09-23T19:43:36.611Z,31.75
2017-09-23T19:46:04.343Z,34.10
2017-09-23T19:48:32.119Z,44.15
2017-09-23T19:51:00.622Z,47.15
2017-09-23T19:53:28.382Z,51.47
2017-09-23T19:55:58.073Z,47.70
2017-09-23T19:58:26.559Z,54.45
2017-09-23T20:00:55.070Z,52.40
2017-09-23T20:03:22.821Z,39.40
2017-09-23T20:05:50.547Z,34.78
2017-09-23T20:08:19.983Z,32.38
2017-09-23T20:10:47.720Z,40.40
2017-09-23T20:13:15.599Z,50.58
2017-09-23T20:15:44.899Z,64.45
2017-09-23T20:18:13.395Z,72.60
2017-09-23T20:20:41.927Z,67.50
2017-09-23T20:23:09.648Z,57.97
2017-09-23T20:25:37.427Z,48.90
2017-09-23T20:28:05.163Z,47.25
2017-09-23T20:30:33.666Z,51.00
2017-09-23T20:33:01.411Z,44.63
2017-09-23T20:35:29.901Z,44.95
2017-09-23T20:37:58.386Z,44.55
2017-09-23T20:40:26.899Z,46.65
2017-09-23T20:42:54.623Z,46.65
2017-09-23T20:45:23.211Z,45.47
2017-09-23T20:47:51.695Z,42.42
2017-09-23T20:50:20.208Z,44.92
2017-09-23T20:52:48.902Z,42.53
2017-09-23T20:55:16.632Z,35.22
2017-09-23T20:57:44.456Z,39.83
2017-09-23T21:00:12.307Z,32.30
2017-09-23T21:02:40.069Z,35.45
2017-09-23T21:05:14.979Z,26.62
2017-09-23T21:07:43.699Z,31.35
2017-09-23T21:10:11.570Z,27.20
2017-09-23T21:12:39.435Z,33.92
2017-09-23T21:15:07.301Z,30.50
2017-09-23T21:17:35.168Z,31.05
2017-09-23T21:20:03.036Z,30.42
2017-09-23T21:22:30.903Z,30.10
2017-09-23T21:24:58.770Z,30.37
2017-09-23T21:27:26.638Z,31.17
2017-09-23T21:29:54.505Z,34.10
2017-09-23T21:32:22.240Z,35.67
2017-09-23T21:34:49.982Z,36.22
2017-09-23T21:37:18.620Z,39.03
2017-09-23T21:39:46.486Z,35.42
2017-09-23T21:42:14.353Z,37.08
2017-09-23T21:44:42.220Z,41.13
2017-09-23T21:47:10.088Z,34.88
2017-09-23T21:49:37.959Z,37.17
2017-09-23T21:52:05.822Z,42.08
2017-09-23T21:54:33.689Z,42.53
2017-09-23T21:57:01.487Z,40.45
2017-09-23T21:59:32.625Z,42.65
2017-09-23T22:02:00.569Z,47.35
2017-09-23T22:04:28.436Z,50.25
2017-09-23T22:06:56.303Z,40.47
2017-09-23T22:09:24.170Z,50.10
2017-09-23T22:11:52.447Z,47.00
2017-09-23T22:14:20.314Z,46.45
2017-09-23T22:16:48.181Z,48.78
2017-09-23T22:19:16.049Z,52.88
2017-09-23T22:21:43.916Z,48.97
2017-09-23T22:24:11.886Z,49.80
2017-09-23T22:26:39.754Z,48.00
2017-09-23T22:29:07.825Z,47.62
2017-09-23T22:31:35.692Z,50.65
2017-09-23T22:34:03.561Z,50.97
2017-09-23T22:36:31.426Z,46.83
2017-09-23T22:38:59.294Z,53.30
2017-09-23T22:41:27.265Z,52.85
2017-09-23T22:43:55.137Z,54.95
2017-09-23T22:46:22.998Z,52.53
2017-09-23T22:48:50.866Z,54.33
2017-09-23T22:51:18.734Z,53.33
2017-09-23T22:53:46.600Z,49.67
2017-09-23T22:56:14.468Z,53.00
2017-09-23T22:58:42.335Z,50.97
2017-09-23T23:01:10.201Z,56.47
2017-09-23T23:03:38.075Z,56.25
2017-09-23T23:06:05.937Z,51.70
2017-09-23T23:08:33.804Z,58.60
2017-09-23T23:11:01.672Z,54.67
2017-09-23T23:13:29.538Z,59.53
2017-09-23T23:15:57.407Z,57.13
2017-09-23T23:18:25.273Z,57.38
2017-09-23T23:20:53.140Z,55.30
2017-09-23T23:23:21.011Z,52.53
2017-09-23T23:25:48.878Z,55.50
2017-09-23T23:28:16.744Z,50.22
2017-09-23T23:30:44.617Z,56.55
2017-09-23T23:33:12.481Z,54.80
2017-09-23T23:35:40.346Z,55.08
2017-09-23T23:38:08.215Z,55.97
2017-09-23T23:40:36.081Z,55.90
2017-09-23T23:43:03.946Z,57.28
2017-09-23T23:45:31.813Z,52.97
2017-09-23T23:47:59.680Z,58.22
2017-09-23T23:50:27.549Z,60.60
2017-09-23T23:52:55.414Z,57.22
2017-09-23T23:55:23.282Z,56.42
2017-09-23T23:57:51.150Z,58.92
